Flugplatz Thannhausen

Für EDNU sind keine METAR/TAF Berichte vorhanden.
Es werden die Flugwettermeldungen vom Flugplatz Lechfeld Airport in 33 km Entfernung angezeigt.

Bericht für ETSL

vom 28.01. um 16:20 UTC

Wind 12 kt aus 240°

Sichtweite 10 km oder mehr

gering bewölkt in 2000 ft

aufgelockert bewölkt in 12000 ft

Temperatur 3.0°C

Taupunkt -3.0°C

Luftfeuchtigkeit 65%

Luftdruck 1003 hPa

ETSL 281620Z 24012KT 9999 FEW020 SCT120 03/M03 Q1003 BLU+

Prognose für ETSL

vom 28.01. um 00:00 UTC

Zwischen 00:00 UTC und 00:00 UTC

Wind 20 kt aus 220° in Böen 35 kt

Sichtweite 10 km oder mehr

keine signifikanten Wettererscheinungen

aufgebrochene Bewölkung in 3000 ft


Zwischen 00:00 UTC und 00:00 UTC zeitweise

Wind 25 kt aus 230° in Böen 45 kt

Sichtweite 500 m

Code: TSGS

Code: TSSN

aufgebrochene Bewölkung in 100 ft

aufgebrochene Bewölkung in 1000 ft


Zwischen 00:00 UTC und 00:00 UTC zeitweise

Wind 25 kt aus 230° in Böen 40 kt

Sichtweite 1600 m

Schneeschauer

aufgebrochene Bewölkung in 500 ft

aufgebrochene Bewölkung in 1000 ft

TAF AMD ETSL 281540Z 2815/2824 22020G35KT 9999 NSW BKN030 TEMPO 2815/2817 23025G45KT 0500 TSGSSN BKN001 BKN010CB TEMPO 2817/2824 23025G40KT 1600 SHSN BKN005 BKN010CB CANCEL 1600 BY ETGL
Impressum